Time;durP1;ratioP1;P1;durP2;ratioP2;P2;SDS_P1;SDS_P2;PMS_P1;PMS_P2;Temp;Humidity;BMP_temperature;BMP_pressure;BME280_temperature;BME280_humidity;BME280_pressure;Samples;Min_cycle;Max_cycle;Signal;HPM_P1;HPM_P2
2022/01/17 04:11:17;;;;;;;;;;;5.90;99.90;;;;;;6183101;23;19932;-86
2022/01/17 04:13:43;;;;;;;;;;;5.90;99.90;;;;;;6147003;23;20226;-86
2022/01/17 04:16:11;;;;;;;;;;;5.90;99.90;;;;;;6171869;23;20230;-87
2022/01/17 04:18:37;;;;;;;;;;;5.90;99.90;;;;;;6171923;23;19970;-88
2022/01/17 04:21:03;;;;;;;;;;;5.90;99.90;;;;;;6147216;23;19909;-88
2022/01/17 04:23:29;;;;;;;;;;;5.90;99.90;;;;;;6173017;23;20036;-87
2022/01/17 04:25:55;;;;;;;;;;;5.90;99.90;;;;;;6146553;23;19992;-86
2022/01/17 04:28:20;;;;;;;;;;;5.90;99.90;;;;;;6172154;23;19916;-88
2022/01/17 04:30:46;;;;;;;;;;;5.90;99.90;;;;;;6146333;23;19920;-89
2022/01/17 04:33:12;;;;;;;;;;;5.90;99.90;;;;;;6147402;23;19934;-90
2022/01/17 04:36:16;;;;;;;;;;;5.90;99.90;;;;;;6145694;23;20317;-88
2022/01/17 04:38:42;;;;;;;;;;;5.90;99.90;;;;;;6007036;23;19918;-87
2022/01/17 04:41:16;;;;;;;;;;;6.00;99.90;;;;;;5971527;23;19922;-88
2022/01/17 04:43:57;;;;;;;;;;;5.90;99.90;;;;;;5971645;23;19985;-87
2022/01/17 04:46:23;;;;;;;;;;;5.90;99.90;;;;;;5971185;23;19969;-84
2022/01/17 04:48:49;;;;;;;;;;;5.90;99.90;;;;;;5958514;23;19926;-87
2022/01/17 04:51:17;;;;;;;;;;;5.90;99.90;;;;;;5971837;23;19910;-87
2022/01/17 04:53:54;;;;;;;;;;;;;;;;;;;;;
2022/01/17 04:56:50;;;;;;;;;;;5.90;99.90;;;;;;5974148;23;19921;-91
2022/01/17 04:59:24;;;;;;;;;;;5.90;99.90;;;;;;5899761;23;19954;-92
2022/01/17 05:01:52;;;;;;;;;;;5.90;99.90;;;;;;5958781;23;19934;-91
2022/01/17 05:04:18;;;;;;;;;;;5.90;99.90;;;;;;5959750;23;19914;-88
2022/01/17 05:06:49;;;;;;;;;;;5.90;99.90;;;;;;5970743;23;20228;-88
2022/01/17 05:09:17;;;;;;;;;;;5.90;99.90;;;;;;6053020;23;20325;-89
2022/01/17 05:11:43;;;;;;;;;;;5.90;99.90;;;;;;6136540;23;19931;-89
2022/01/17 05:14:09;;;;;;;;;;;5.80;99.90;;;;;;6146302;23;19912;-88
2022/01/17 05:16:41;;;;;;;;;;;5.90;99.90;;;;;;6114908;23;19932;-89
2022/01/17 05:21:56;;;;;;;;;;;5.80;99.90;;;;;;6142898;23;19915;-89
2022/01/17 05:24:22;;;;;;;;;;;5.90;99.90;;;;;;6117015;23;20241;-88
2022/01/17 05:26:48;;;;;;;;;;;6.00;99.90;;;;;;6142044;23;19916;-89
2022/01/17 05:29:13;;;;;;;;;;;6.00;99.90;;;;;;6119733;23;19908;-88
2022/01/17 05:31:39;;;;;;;;;;;6.00;99.90;;;;;;6161399;23;20337;-89
2022/01/17 05:34:04;;;;;;;;;;;6.00;99.90;;;;;;6146441;23;19913;-88
2022/01/17 05:36:30;;;;;;;;;;;6.00;99.90;;;;;;6118063;23;19922;-88
2022/01/17 05:38:55;;;;;;;;;;;6.00;99.90;;;;;;6106216;23;20341;-89
2022/01/17 05:41:21;;;;;;;;;;;5.90;99.90;;;;;;6118374;23;20242;-88
2022/01/17 05:43:46;;;;;;;;;;;6.00;99.90;;;;;;6120271;23;20356;-87
2022/01/17 05:46:12;;;;;;;;;;;6.00;99.90;;;;;;6119051;23;19928;-89
2022/01/17 05:48:37;;;;;;;;;;;6.00;99.90;;;;;;6124336;23;19916;-90
2022/01/17 05:51:05;;;;;;;;;;;6.00;99.90;;;;;;6150400;23;20503;-91
2022/01/17 05:57:02;;;;;;;;;;;6.00;99.90;;;;;;6033533;23;19917;-93
2022/01/17 06:02:43;;;;;;;;;;;6.10;99.90;;;;;;5910724;23;19915;-95
2022/01/17 06:05:44;;;;;;;;;;;6.10;99.90;;;;;;5898918;23;19910;-93
2022/01/17 06:08:19;;;;;;;;;;;6.00;99.90;;;;;;5986674;23;19941;-94
2022/01/17 06:10:44;;;;;;;;;;;6.00;99.90;;;;;;6000121;23;19920;-87
2022/01/17 06:13:10;;;;;;;;;;;6.00;99.90;;;;;;6025213;23;20450;-85
2022/01/17 06:15:35;;;;;;;;;;;6.00;99.90;;;;;;6025500;23;19921;-85
2022/01/17 06:18:01;;;;;;;;;;;6.00;99.90;;;;;;6025830;23;20348;-85
2022/01/17 06:20:30;;;;;;;;;;;6.00;99.90;;;;;;6025501;23;19921;-92
2022/01/17 06:22:56;;;;;;;;;;;6.00;99.90;;;;;;6026182;23;19921;-85
2022/01/17 06:25:21;;;;;;;;;;;6.00;99.90;;;;;;6025672;23;19910;-86
2022/01/17 06:27:47;;;;;;;;;;;5.90;99.90;;;;;;6055439;23;19914;-85
2022/01/17 06:30:15;;;;;;;;;;;5.90;99.90;;;;;;6081633;23;20005;-85
2022/01/17 06:32:41;;;;;;;;;;;5.90;99.90;;;;;;6084431;23;19913;-85
2022/01/17 06:35:06;;;;;;;;;;;5.80;99.90;;;;;;6081965;23;19913;-86
2022/01/17 06:37:32;;;;;;;;;;;5.80;99.90;;;;;;6083172;23;20056;-85
2022/01/17 06:39:59;;;;;;;;;;;5.80;99.90;;;;;;6122244;23;19913;-89
2022/01/17 06:58:53;;;;;;;;;;;5.50;99.90;;;;;;6015877;23;19925;-93
2022/01/17 07:17:53;;;;;;;;;;;5.60;99.90;;;;;;5860190;24;19947;-93
2022/01/17 07:20:41;;;;;;;;;;;5.70;99.90;;;;;;5815343;24;19916;-91
2022/01/17 07:23:37;;;;;;;;;;;5.70;99.90;;;;;;5876744;24;20244;-91
2022/01/17 07:29:43;;;;;;;;;;;;;;;;;;;;;
2022/01/17 07:35:33;;;;;;;;;;;5.70;99.90;;;;;;5901330;24;20435;-91
2022/01/17 07:38:45;;;;;;;;;;;5.70;99.90;;;;;;5883451;24;19972;-90
2022/01/17 07:41:43;;;;;;;;;;;;;;;;;;;;;
2022/01/17 08:00:08;;;;;;;;;;;;;;;;;;;;;
2022/01/17 08:02:41;;;;;;;;;;;5.80;99.90;;;;;;5805258;24;19913;-91
2022/01/17 08:08:51;;;;;;;;;;;5.90;99.90;;;;;;5783429;24;19984;-91
2022/01/17 08:11:52;;;;;;;;;;;;;;;;;;;;;
2022/01/17 08:27:20;;;;;;;;;;;;;;;;;;;;;
2022/01/17 08:33:42;;;;;;;;;;;;;;;;;;;;;
2022/01/17 08:42:20;;;;;;;;;;;;;;;;;;;;;
2022/01/17 08:51:37;;;;;;;;;;;;;;;;;;;;;
2022/01/17 08:57:48;;;;;;;;;;;5.90;99.90;;;;;;5902104;24;19925;-90
2022/01/17 09:04:05;;;;;;;;;;;6.00;99.90;;;;;;5906739;24;19942;-90
2022/01/17 09:07:12;;;;;;;;;;;;;;;;;;;;;
2022/01/17 09:25:41;;;;;;;;;;;6.00;99.90;;;;;;5865540;24;20480;-89
2022/01/17 09:28:34;;;;;;;;;;;6.00;99.90;;;;;;5859551;24;19912;-91
2022/01/17 09:34:46;;;;;;;;;;;;;;;;;;;;;
2022/01/17 09:40:27;;;;;;;;;;;6.20;99.90;;;;;;5901121;24;19934;-91
2022/01/17 09:43:09;;;;;;;;;;;6.20;99.90;;;;;;5918094;23;20005;-90
2022/01/17 09:48:45;;;;;;;;;;;6.20;99.90;;;;;;6028836;23;19972;-92
2022/01/17 09:57:44;;;;;;;;;;;6.20;99.90;;;;;;6015950;23;19920;-91
2022/01/17 10:00:24;;;;;;;;;;;;;;;;;;;;;
2022/01/17 10:02:56;;;;;;;;;;;6.10;99.90;;;;;;6077692;23;20849;-92
2022/01/17 10:15:43;;;;;;;;;;;;;;;;;;;;;
2022/01/17 10:18:42;;;;;;;;;;;;;;;;;;;;;
2022/01/17 10:27:42;;;;;;;;;;;5.70;99.90;;;;;;6016292;23;20375;-92
2022/01/17 10:39:42;;;;;;;;;;;;;;;;;;;;;
2022/01/17 10:42:56;;;;;;;;;;;;;;;;;;;;;
2022/01/17 10:49:13;;;;;;;;;;;5.80;99.90;;;;;;5823912;24;19930;-91
2022/01/17 10:52:04;;;;;;;;;;;5.80;99.90;;;;;;5794740;24;19938;-91
2022/01/17 10:54:35;;;;;;;;;;;5.80;99.90;;;;;;5790392;24;19916;-91
2022/01/17 10:57:45;;;;;;;;;;;;;;;;;;;;;
2022/01/17 11:06:57;;;;;;;;;;;;;;;;;;;;;
2022/01/17 11:10:07;;;;;;;;;;;;;;;;;;;;;
2022/01/17 11:13:09;;;;;;;;;;;5.90;99.90;;;;;;5820957;24;20590;-90
2022/01/17 11:15:44;;;;;;;;;;;6.30;99.90;;;;;;5931483;23;19916;-90
2022/01/17 11:25:18;;;;;;;;;;;7.10;99.90;;;;;;5907757;23;20337;-92
2022/01/17 11:28:16;;;;;;;;;;;7.30;99.90;;;;;;5952033;23;19922;-93
2022/01/17 11:31:05;;;;;;;;;;;7.00;99.90;;;;;;5919428;23;19921;-91
2022/01/17 11:33:56;;;;;;;;;;;;;;;;;;;;;
2022/01/17 11:36:36;;;;;;;;;;;6.50;99.90;;;;;;5984900;23;20702;-90
2022/01/17 11:39:15;;;;;;;;;;;6.10;99.90;;;;;;6034829;23;19951;-91
2022/01/17 11:45:09;;;;;;;;;;;5.10;99.90;;;;;;6055246;23;20249;-90
2022/01/17 11:47:53;;;;;;;;;;;4.70;99.90;;;;;;5990729;23;19970;-89
2022/01/17 12:00:37;;;;;;;;;;;4.20;99.90;;;;;;6031149;23;19929;-91
2022/01/17 12:03:45;;;;;;;;;;;4.10;99.90;;;;;;6008217;23;20375;-91
2022/01/17 12:29:53;;;;;;;;;;;;;;;;;;;;;
2022/01/17 12:38:45;;;;;;;;;;;4.10;99.90;;;;;;5814068;24;19926;-93
2022/01/17 12:58:00;;;;;;;;;;;;;;;;;;;;;
2022/01/17 13:04:16;;;;;;;;;;;4.30;99.90;;;;;;5479922;24;4956158;-95
2022/01/17 13:07:08;;;;;;;;;;;;;;;;;;;;;
2022/01/17 13:09:40;;;;;;;;;;;4.40;99.90;;;;;;5823504;24;19919;-89
2022/01/17 13:12:07;;;;;;;;;;;4.50;99.90;;;;;;5825977;24;20390;-89
2022/01/17 13:14:34;;;;;;;;;;;4.40;99.90;;;;;;5810848;24;20323;-89
2022/01/17 13:16:59;;;;;;;;;;;4.40;99.90;;;;;;5810294;24;19947;-89
2022/01/17 13:19:27;;;;;;;;;;;4.40;99.90;;;;;;5833255;24;19969;-88
2022/01/17 13:21:53;;;;;;;;;;;4.40;99.90;;;;;;5809965;24;19917;-88
2022/01/17 13:27:02;;;;;;;;;;;4.50;99.90;;;;;;5904794;24;20313;-88
2022/01/17 13:29:28;;;;;;;;;;;4.50;99.90;;;;;;5933195;23;19991;-89
2022/01/17 13:31:53;;;;;;;;;;;4.50;99.90;;;;;;6025029;23;20137;-89
2022/01/17 13:34:20;;;;;;;;;;;4.50;99.90;;;;;;6025281;23;20041;-89
2022/01/17 13:36:47;;;;;;;;;;;4.50;99.90;;;;;;6025970;23;19910;-87
2022/01/17 13:39:14;;;;;;;;;;;4.50;99.90;;;;;;6039609;23;19917;-88
2022/01/17 13:41:42;;;;;;;;;;;4.50;99.90;;;;;;6084767;23;19917;-90
2022/01/17 13:44:08;;;;;;;;;;;4.40;99.90;;;;;;6084020;23;19916;-87
2022/01/17 13:46:38;;;;;;;;;;;4.40;99.90;;;;;;6083725;23;20366;-89
2022/01/17 13:49:09;;;;;;;;;;;4.40;99.90;;;;;;6071708;23;19914;-90
2022/01/17 13:51:35;;;;;;;;;;;4.40;99.90;;;;;;6088329;23;20358;-90
2022/01/17 13:54:00;;;;;;;;;;;4.40;99.90;;;;;;6087629;23;19980;-92
2022/01/17 13:56:35;;;;;;;;;;;4.40;99.90;;;;;;6072097;23;19940;-93
2022/01/17 13:59:01;;;;;;;;;;;4.40;99.90;;;;;;6091990;23;19988;-89
2022/01/17 14:01:31;;;;;;;;;;;4.40;99.90;;;;;;6115511;23;19941;-90
2022/01/17 14:03:57;;;;;;;;;;;4.50;99.90;;;;;;6092143;23;19913;-91
2022/01/17 14:06:26;;;;;;;;;;;4.50;99.90;;;;;;6074828;23;20303;-91
2022/01/17 14:08:58;;;;;;;;;;;4.50;99.90;;;;;;6090159;23;19917;-89
2022/01/17 14:11:25;;;;;;;;;;;4.50;99.90;;;;;;6088924;23;19936;-90
2022/01/17 14:13:59;;;;;;;;;;;4.50;99.90;;;;;;6091282;23;19909;-91
2022/01/17 14:16:30;;;;;;;;;;;4.50;99.90;;;;;;6089342;23;19913;-91
2022/01/17 14:18:57;;;;;;;;;;;4.50;99.90;;;;;;6100563;23;19951;-91
2022/01/17 14:21:28;;;;;;;;;;;4.50;99.90;;;;;;6108952;23;19913;-89
2022/01/17 14:24:03;;;;;;;;;;;4.50;99.90;;;;;;6116304;23;19912;-89
2022/01/17 14:26:29;;;;;;;;;;;4.40;99.90;;;;;;6107738;23;19925;-90
2022/01/17 14:29:14;;;;;;;;;;;4.50;99.90;;;;;;6115249;23;20423;-90
2022/01/17 14:34:51;;;;;;;;;;;4.40;99.90;;;;;;6109294;23;19931;-92
2022/01/17 14:37:58;;;;;;;;;;;4.40;99.90;;;;;;6061642;23;19991;-92
2022/01/17 14:40:39;;;;;;;;;;;4.40;99.90;;;;;;5970125;23;20361;-90
2022/01/17 14:43:35;;;;;;;;;;;;;;;;;;;;;
2022/01/17 14:46:15;;;;;;;;;;;4.30;99.90;;;;;;6005844;23;20655;-94
2022/01/17 14:49:13;;;;;;;;;;;4.30;99.90;;;;;;5952002;23;19918;-93
2022/01/17 14:51:52;;;;;;;;;;;4.20;99.90;;;;;;5953705;23;19914;-93
2022/01/17 14:54:25;;;;;;;;;;;4.20;99.90;;;;;;5966343;23;19917;-91
2022/01/17 14:59:55;;;;;;;;;;;4.20;99.90;;;;;;6033780;23;19925;-92
2022/01/17 15:05:36;;;;;;;;;;;4.10;99.90;;;;;;6043672;23;20161;-95
2022/01/17 15:57:04;;;;;;;;;;;4.60;99.90;;;;;;6215131;23;19964;-94
2022/01/17 15:59:30;;;;;;;;;;;4.00;99.90;;;;;;6195965;23;19916;-91
2022/01/17 16:01:57;;;;;;;;;;;3.80;99.90;;;;;;6148537;23;20288;-93
2022/01/17 16:04:45;;;;;;;;;;;3.60;99.90;;;;;;6133160;23;19912;-94
2022/01/17 16:07:26;;;;;;;;;;;3.60;99.90;;;;;;6096170;23;19919;-92
2022/01/17 16:09:52;;;;;;;;;;;3.50;99.90;;;;;;6162654;23;19948;-93
2022/01/17 16:25:38;;;;;;;;;;;3.20;99.90;;;;;;6142651;23;20216;-90
2022/01/17 16:28:04;;;;;;;;;;;3.30;99.90;;;;;;6118080;23;20257;-89
2022/01/17 16:30:29;;;;;;;;;;;3.30;99.90;;;;;;6118372;23;19917;-90
2022/01/17 16:32:55;;;;;;;;;;;3.30;99.90;;;;;;6142958;23;19912;-88
2022/01/17 16:35:21;;;;;;;;;;;3.20;99.90;;;;;;6145102;23;19935;-89
2022/01/17 16:37:46;;;;;;;;;;;3.20;99.90;;;;;;6143825;23;19924;-88
2022/01/17 16:40:14;;;;;;;;;;;3.20;99.90;;;;;;6118212;23;19916;-89
2022/01/17 16:42:40;;;;;;;;;;;3.10;99.90;;;;;;6118030;23;19960;-87
2022/01/17 16:45:06;;;;;;;;;;;3.10;99.90;;;;;;6117786;23;20298;-87
2022/01/17 16:47:31;;;;;;;;;;;3.10;99.90;;;;;;6143613;23;19912;-88
2022/01/17 16:49:57;;;;;;;;;;;3.00;99.90;;;;;;6118185;23;20525;-89
2022/01/17 16:52:22;;;;;;;;;;;3.00;99.90;;;;;;6116234;23;19913;-88
2022/01/17 16:54:49;;;;;;;;;;;3.00;99.90;;;;;;6117869;23;19956;-88
2022/01/17 16:57:15;;;;;;;;;;;2.90;99.90;;;;;;6117478;23;20660;-91
2022/01/17 16:59:41;;;;;;;;;;;2.90;99.90;;;;;;6119138;23;19936;-89
2022/01/17 17:02:16;;;;;;;;;;;3.00;99.90;;;;;;6128567;23;19957;-89
2022/01/17 17:04:51;;;;;;;;;;;2.90;99.90;;;;;;6118255;23;19916;-88
2022/01/17 17:07:17;;;;;;;;;;;2.90;99.90;;;;;;6115641;23;19912;-90
2022/01/17 17:09:43;;;;;;;;;;;2.90;99.90;;;;;;6131018;23;19919;-89
2022/01/17 17:12:08;;;;;;;;;;;2.90;99.90;;;;;;6118106;23;19976;-90
2022/01/17 17:14:34;;;;;;;;;;;2.80;99.90;;;;;;6144431;23;19908;-89
2022/01/17 17:16:59;;;;;;;;;;;2.80;99.90;;;;;;6118387;23;19924;-90
2022/01/17 17:19:25;;;;;;;;;;;2.80;99.90;;;;;;6130425;23;20223;-89
2022/01/17 17:21:50;;;;;;;;;;;2.70;99.90;;;;;;6116975;23;19913;-88
2022/01/17 17:24:18;;;;;;;;;;;2.70;99.90;;;;;;6118221;23;20027;-87
2022/01/17 17:26:44;;;;;;;;;;;2.70;99.90;;;;;;6118785;23;19912;-86
2022/01/17 17:29:10;;;;;;;;;;;2.80;99.90;;;;;;6147436;23;20519;-89
2022/01/17 17:32:03;;;;;;;;;;;2.70;99.90;;;;;;6086627;23;19911;-92
2022/01/17 17:34:28;;;;;;;;;;;2.70;99.90;;;;;;6095221;23;20376;-88
2022/01/17 17:36:58;;;;;;;;;;;2.80;99.90;;;;;;6117972;23;19909;-89
2022/01/17 17:39:25;;;;;;;;;;;2.70;99.90;;;;;;6119534;23;19952;-89
2022/01/17 17:42:14;;;;;;;;;;;2.70;99.90;;;;;;6099655;23;19963;-88
2022/01/17 17:44:40;;;;;;;;;;;2.70;99.90;;;;;;6103952;23;19919;-93
2022/01/17 17:47:09;;;;;;;;;;;2.80;99.90;;;;;;6119348;23;19915;-87
2022/01/17 17:49:35;;;;;;;;;;;2.80;99.90;;;;;;6118474;23;19909;-92
2022/01/17 17:52:01;;;;;;;;;;;2.80;99.90;;;;;;6118552;23;20473;-89
2022/01/17 17:54:29;;;;;;;;;;;2.80;99.90;;;;;;6118596;23;19984;-93
2022/01/17 17:56:55;;;;;;;;;;;2.80;99.90;;;;;;6116778;23;19915;-92
2022/01/17 17:59:29;;;;;;;;;;;2.80;99.90;;;;;;6143097;23;19912;-91
2022/01/17 18:01:55;;;;;;;;;;;2.80;99.90;;;;;;6118105;23;19912;-93
2022/01/17 18:04:22;;;;;;;;;;;2.70;99.90;;;;;;6104852;23;19919;-90
2022/01/17 18:06:50;;;;;;;;;;;2.70;99.90;;;;;;6106155;23;20244;-89
2022/01/17 18:09:21;;;;;;;;;;;2.80;99.90;;;;;;6102664;23;20297;-91
2022/01/17 18:11:48;;;;;;;;;;;2.80;99.90;;;;;;6104477;23;20260;-92
2022/01/17 18:14:14;;;;;;;;;;;2.80;99.90;;;;;;6117471;23;20250;-92
2022/01/17 18:16:42;;;;;;;;;;;2.90;99.90;;;;;;6061828;23;19909;-92
2022/01/17 18:19:10;;;;;;;;;;;2.90;99.90;;;;;;6085278;23;19917;-92
2022/01/17 18:21:54;;;;;;;;;;;2.90;99.90;;;;;;6097498;23;19920;-92
2022/01/17 18:24:20;;;;;;;;;;;2.90;99.90;;;;;;6128956;23;19940;-92
2022/01/17 18:26:46;;;;;;;;;;;2.80;99.90;;;;;;6113699;23;20378;-92
2022/01/17 18:29:12;;;;;;;;;;;2.80;99.90;;;;;;6071603;23;19996;-93
2022/01/17 18:31:37;;;;;;;;;;;2.80;99.90;;;;;;6064044;23;19937;-90
2022/01/17 18:34:24;;;;;;;;;;;2.70;99.90;;;;;;6064063;23;20231;-95
2022/01/17 18:36:59;;;;;;;;;;;2.80;99.90;;;;;;6083422;23;19984;-87
2022/01/17 18:39:26;;;;;;;;;;;2.80;99.90;;;;;;6114502;23;19995;-89
2022/01/17 18:41:52;;;;;;;;;;;2.70;99.90;;;;;;6100779;23;20400;-88
2022/01/17 18:44:18;;;;;;;;;;;2.70;99.90;;;;;;6060019;23;19913;-89
2022/01/17 18:46:48;;;;;;;;;;;2.70;99.90;;;;;;6108217;23;20334;-88
2022/01/17 18:49:20;;;;;;;;;;;2.70;99.90;;;;;;6086398;23;20026;-88
2022/01/17 18:51:47;;;;;;;;;;;2.70;99.90;;;;;;6071088;23;20402;-89
2022/01/17 18:54:16;;;;;;;;;;;2.70;99.90;;;;;;6112633;23;20336;-89
2022/01/17 18:56:41;;;;;;;;;;;2.60;99.90;;;;;;6073825;23;19910;-89
2022/01/17 18:59:09;;;;;;;;;;;2.60;99.90;;;;;;6084309;23;20397;-88
2022/01/17 19:01:40;;;;;;;;;;;2.60;99.90;;;;;;6060615;23;19913;-89
2022/01/17 20:02:00;;;;;;;;;;;2.70;99.90;;;;;;4802357;22;32674326;-92
2022/01/17 20:04:28;;;;;;;;;;;2.70;99.90;;;;;;6131705;23;19913;-92
2022/01/17 20:06:55;;;;;;;;;;;2.70;99.90;;;;;;6121088;23;19973;-93
2022/01/17 20:09:23;;;;;;;;;;;2.70;99.90;;;;;;6125314;23;20253;-92
2022/01/17 20:11:50;;;;;;;;;;;2.70;99.90;;;;;;6153235;23;19912;-92
2022/01/17 20:14:21;;;;;;;;;;;2.60;99.90;;;;;;6111392;23;20364;-94
2022/01/17 20:17:06;;;;;;;;;;;2.60;99.90;;;;;;6097988;23;19920;-93
2022/01/17 20:22:30;;;;;;;;;;;2.50;99.90;;;;;;6142212;23;19916;-94
2022/01/17 20:25:04;;;;;;;;;;;2.50;99.90;;;;;;6103572;23;19909;-93
2022/01/17 20:27:30;;;;;;;;;;;2.50;99.90;;;;;;6105754;23;19909;-92
2022/01/17 20:29:56;;;;;;;;;;;2.50;99.90;;;;;;6105978;23;20023;-92
2022/01/17 20:32:22;;;;;;;;;;;2.50;99.90;;;;;;6126302;23;19920;-91
2022/01/17 20:34:51;;;;;;;;;;;2.50;99.90;;;;;;6119570;23;20483;-91
2022/01/17 20:37:29;;;;;;;;;;;2.40;99.90;;;;;;6074947;23;20250;-93
2022/01/17 20:40:06;;;;;;;;;;;2.40;99.90;;;;;;6095977;23;19921;-92
2022/01/17 20:42:41;;;;;;;;;;;2.40;99.90;;;;;;6048670;23;19913;-93
2022/01/17 20:45:30;;;;;;;;;;;2.30;99.90;;;;;;6051860;23;19917;-92
2022/01/17 20:48:14;;;;;;;;;;;2.30;99.90;;;;;;6042659;23;19909;-93
2022/01/17 20:51:15;;;;;;;;;;;;;;;;;;;;;
2022/01/17 20:53:50;;;;;;;;;;;2.20;99.90;;;;;;6067985;23;20772;-92
2022/01/17 20:56:29;;;;;;;;;;;2.20;99.90;;;;;;6054181;23;20222;-94
2022/01/17 20:58:56;;;;;;;;;;;2.10;99.90;;;;;;6047185;23;19917;-93
2022/01/17 21:01:23;;;;;;;;;;;2.10;99.90;;;;;;6074822;23;20335;-91
2022/01/17 21:03:50;;;;;;;;;;;2.10;99.90;;;;;;6076670;23;20381;-93
2022/01/17 21:06:20;;;;;;;;;;;2.00;99.90;;;;;;6087403;23;19930;-93
2022/01/17 21:08:49;;;;;;;;;;;2.10;99.90;;;;;;6074773;23;19952;-92
2022/01/17 21:11:15;;;;;;;;;;;2.10;99.90;;;;;;6084578;23;19992;-92
2022/01/17 21:13:54;;;;;;;;;;;2.10;99.90;;;;;;6049285;23;19913;-94
2022/01/17 21:16:39;;;;;;;;;;;2.00;99.90;;;;;;6089027;23;19963;-93
2022/01/17 21:19:32;;;;;;;;;;;2.00;99.90;;;;;;6072118;23;19918;-94
2022/01/17 21:22:03;;;;;;;;;;;2.00;99.90;;;;;;6095927;23;19944;-93
2022/01/17 21:24:31;;;;;;;;;;;2.00;99.90;;;;;;6043657;23;20286;-94
2022/01/17 21:26:58;;;;;;;;;;;1.90;99.90;;;;;;6015659;23;19980;-94
2022/01/17 21:29:35;;;;;;;;;;;1.90;99.90;;;;;;6029745;23;19913;-94
2022/01/17 21:32:27;;;;;;;;;;;1.80;99.90;;;;;;6023923;23;20337;-94
2022/01/17 21:35:25;;;;;;;;;;;;;;;;;;;;;
2022/01/17 21:41:11;;;;;;;;;;;2.40;99.90;;;;;;6057224;23;19922;-94
2022/01/17 21:43:54;;;;;;;;;;;2.40;99.90;;;;;;6051244;23;19929;-94
2022/01/17 21:49:34;;;;;;;;;;;;;;;;;;;;;
2022/01/17 21:52:12;;;;;;;;;;;2.30;99.90;;;;;;6035431;23;19913;-94
2022/01/17 21:58:30;;;;;;;;;;;2.30;99.90;;;;;;6006464;23;19928;-94
2022/01/17 22:01:23;;;;;;;;;;;2.40;99.90;;;;;;6066093;23;20223;-94
2022/01/17 22:11:07;;;;;;;;;;;2.20;99.90;;;;;;5989749;23;19922;-95
2022/01/17 22:14:01;;;;;;;;;;;2.40;99.90;;;;;;5993466;23;19909;-93
2022/01/17 22:17:00;;;;;;;;;;;2.30;99.90;;;;;;6069037;23;19913;-94
2022/01/17 22:20:08;;;;;;;;;;;2.20;99.90;;;;;;6068985;23;19909;-94
2022/01/17 22:29:47;;;;;;;;;;;;;;;;;;;;;
2022/01/17 22:56:29;;;;;;;;;;;;;;;;;;;;;
2022/01/17 22:59:12;;;;;;;;;;;2.20;99.90;;;;;;5986291;23;19914;-91
2022/01/17 23:02:11;;;;;;;;;;;;;;;;;;;;;
2022/01/17 23:11:09;;;;;;;;;;;;;;;;;;;;;
2022/01/17 23:13:57;;;;;;;;;;;2.30;99.90;;;;;;5910380;23;19985;-94
2022/01/17 23:19:48;;;;;;;;;;;2.10;99.90;;;;;;5963080;23;19918;-93
2022/01/17 23:22:43;;;;;;;;;;;;;;;;;;;;;
2022/01/17 23:28:16;;;;;;;;;;;1.90;99.90;;;;;;5993365;23;20299;-93
2022/01/17 23:34:15;;;;;;;;;;;1.90;99.90;;;;;;5940082;23;19921;-93
2022/01/17 23:36:56;;;;;;;;;;;2.00;99.90;;;;;;5908855;23;20329;-92
2022/01/17 23:39:51;;;;;;;;;;;2.00;99.90;;;;;;5979946;23;19971;-93
2022/01/17 23:42:24;;;;;;;;;;;1.90;99.90;;;;;;6035314;23;19913;-91
2022/01/17 23:45:01;;;;;;;;;;;1.90;99.90;;;;;;6053508;23;19921;-90
2022/01/17 23:47:39;;;;;;;;;;;;;;;;;;;;;
2022/01/17 23:50:29;;;;;;;;;;;1.90;99.90;;;;;;6074704;23;19940;-91
2022/01/17 23:53:31;;;;;;;;;;;;;;;;;;;;;
2022/01/17 23:56:35;;;;;;;;;;;;;;;;;;;;;
2022/01/17 23:59:43;;;;;;;;;;;1.50;99.90;;;;;;6049962;23;20735;-92
